createdAt,value
2019-03-17T00:00:51.459Z,72.74
2019-03-17T00:03:22.125Z,72.03
2019-03-17T00:05:52.804Z,73.36
2019-03-17T00:08:23.622Z,71.83
2019-03-17T00:10:54.778Z,73.58
2019-03-17T00:13:25.604Z,72.75
2019-03-17T00:15:56.421Z,72.86
2019-03-17T00:18:27.035Z,73.59
2019-03-17T00:20:58.676Z,72.35
2019-03-17T00:23:29.353Z,73.57
2019-03-17T00:26:00.149Z,72.88
2019-03-17T00:28:30.885Z,74.53
2019-03-17T00:31:01.768Z,74.28
2019-03-17T00:33:32.459Z,74.30
2019-03-17T00:36:03.314Z,73.01
2019-03-17T00:38:33.961Z,73.60
2019-03-17T00:41:04.915Z,71.93
2019-03-17T00:43:35.633Z,71.88
2019-03-17T00:46:06.426Z,70.18
2019-03-17T00:48:37.103Z,70.47
2019-03-17T00:51:07.984Z,67.84
2019-03-17T00:53:38.778Z,64.38
2019-03-17T00:56:09.567Z,63.79
2019-03-17T00:58:40.348Z,63.67
2019-03-17T01:01:11.125Z,66.67
2019-03-17T01:03:41.992Z,66.52
2019-03-17T01:06:12.675Z,63.84
2019-03-17T01:08:43.458Z,63.18
2019-03-17T01:11:14.241Z,63.12
2019-03-17T01:13:45.066Z,64.64
2019-03-17T01:16:15.848Z,62.81
2019-03-17T01:18:46.525Z,65.04
2019-03-17T01:21:17.313Z,64.14
2019-03-17T01:23:48.094Z,62.65
2019-03-17T01:26:18.882Z,58.93
2019-03-17T01:28:49.666Z,56.52
2019-03-17T01:31:20.463Z,54.84
2019-03-17T01:33:51.315Z,55.24
2019-03-17T01:36:22.005Z,57.61
2019-03-17T01:38:52.817Z,52.67
2019-03-17T01:41:23.784Z,52.28
2019-03-17T01:43:54.373Z,50.72
2019-03-17T01:46:26.043Z,50.74
2019-03-17T01:48:56.829Z,48.02
2019-03-17T01:51:27.622Z,47.36
2019-03-17T01:53:58.411Z,49.70
2019-03-17T01:56:29.125Z,48.64
2019-03-17T01:58:59.912Z,43.48
2019-03-17T02:01:30.693Z,48.05
2019-03-17T02:04:01.376Z,44.12
2019-03-17T02:06:32.231Z,41.58
2019-03-17T02:09:03.925Z,40.31
2019-03-17T02:11:34.815Z,40.87
2019-03-17T02:14:05.660Z,42.50
2019-03-17T02:16:36.820Z,41.27
2019-03-17T02:19:07.482Z,42.16
2019-03-17T02:21:39.420Z,42.63
2019-03-17T02:24:10.114Z,42.29
2019-03-17T02:26:40.789Z,43.38
2019-03-17T02:29:11.578Z,41.97
2019-03-17T02:31:42.265Z,41.98
2019-03-17T02:34:12.976Z,42.01
2019-03-17T02:36:43.814Z,41.70
2019-03-17T02:39:14.584Z,42.58
2019-03-17T02:41:45.666Z,42.23
2019-03-17T02:44:16.547Z,42.39
2019-03-17T02:46:48.233Z,42.54
2019-03-17T02:49:18.925Z,42.90
2019-03-17T02:51:50.061Z,42.45
2019-03-17T02:54:20.777Z,43.30
2019-03-17T02:56:51.721Z,41.50
2019-03-17T02:59:22.505Z,41.81
2019-03-17T03:01:53.293Z,42.58
2019-03-17T03:04:23.976Z,42.84
2019-03-17T03:06:54.792Z,43.18
2019-03-17T03:09:25.576Z,43.69
2019-03-17T03:11:56.553Z,44.52
2019-03-17T03:14:27.219Z,46.57
2019-03-17T03:16:58.203Z,44.71
2019-03-17T03:19:28.893Z,43.58
2019-03-17T03:21:59.674Z,45.28
2019-03-17T03:24:30.763Z,44.84
2019-03-17T03:27:01.488Z,45.15
2019-03-17T03:29:32.165Z,45.85
2019-03-17T03:32:03.054Z,47.07
2019-03-17T03:34:33.919Z,46.21
2019-03-17T03:37:04.711Z,45.69
2019-03-17T03:39:35.373Z,44.86
2019-03-17T03:42:06.632Z,44.50
2019-03-17T03:44:37.284Z,45.26
2019-03-17T03:47:07.963Z,44.73
2019-03-17T03:49:38.752Z,45.11
2019-03-17T03:52:09.996Z,45.77
2019-03-17T03:54:40.701Z,46.83
2019-03-17T03:57:11.383Z,47.27
2019-03-17T03:59:42.163Z,47.69
2019-03-17T04:02:12.883Z,47.77
2019-03-17T04:04:43.771Z,46.86
2019-03-17T04:07:14.558Z,48.85
2019-03-17T04:09:45.406Z,46.75
2019-03-17T04:12:16.304Z,48.79
2019-03-17T04:14:47.095Z,46.61
2019-03-17T04:17:17.864Z,46.38
2019-03-17T04:19:48.793Z,47.32
2019-03-17T04:22:19.926Z,47.55
2019-03-17T04:24:50.669Z,47.37
2019-03-17T04:27:21.522Z,47.78
2019-03-17T04:29:52.240Z,47.85
2019-03-17T04:32:23.292Z,47.32
2019-03-17T04:34:53.976Z,47.39
2019-03-17T04:37:24.955Z,47.69
2019-03-17T04:39:55.790Z,50.99
2019-03-17T04:42:26.543Z,48.86
2019-03-17T04:44:57.219Z,52.47
2019-03-17T04:47:28.718Z,51.32
2019-03-17T04:49:59.407Z,50.36
2019-03-17T04:52:30.299Z,50.13
2019-03-17T04:55:01.130Z,50.86
2019-03-17T04:57:32.082Z,50.67
2019-03-17T05:00:02.882Z,50.64
2019-03-17T05:02:33.584Z,50.00
2019-03-17T05:05:04.355Z,49.03
2019-03-17T05:07:35.053Z,50.06
2019-03-17T05:10:06.302Z,50.24
2019-03-17T05:12:37.122Z,49.07
2019-03-17T05:15:07.855Z,49.66
2019-03-17T05:17:38.586Z,49.78
2019-03-17T05:20:09.642Z,48.92
2019-03-17T05:22:40.486Z,48.21
2019-03-17T05:25:11.311Z,48.10
2019-03-17T05:27:42.111Z,48.51
2019-03-17T05:30:12.880Z,47.73
2019-03-17T05:32:43.577Z,48.08
2019-03-17T05:35:14.459Z,48.85
2019-03-17T05:37:45.272Z,47.85
2019-03-17T05:40:16.161Z,47.81
2019-03-17T05:42:47.021Z,47.53
2019-03-17T05:45:17.730Z,47.97
2019-03-17T05:47:48.600Z,47.99
2019-03-17T05:50:19.537Z,48.47
2019-03-17T05:52:50.448Z,49.14
2019-03-17T05:55:21.186Z,47.62
2019-03-17T05:57:51.974Z,48.19
2019-03-17T06:00:22.748Z,47.75
2019-03-17T06:02:53.643Z,47.98
2019-03-17T06:05:24.498Z,48.21
2019-03-17T06:07:55.344Z,48.19
2019-03-17T06:10:25.991Z,48.31
2019-03-17T06:12:56.739Z,48.21
2019-03-17T06:15:27.527Z,49.31
2019-03-17T06:17:58.312Z,47.97
2019-03-17T06:20:28.996Z,48.02
2019-03-17T06:22:59.787Z,47.89
2019-03-17T06:25:30.598Z,49.50
2019-03-17T06:28:02.367Z,48.75
2019-03-17T06:30:33.256Z,47.96
2019-03-17T06:33:04.087Z,47.25
2019-03-17T06:35:34.764Z,46.64
2019-03-17T06:38:05.635Z,46.81
2019-03-17T06:40:36.478Z,47.08
2019-03-17T06:43:07.487Z,46.56
2019-03-17T06:45:38.515Z,46.02
2019-03-17T06:48:10.398Z,45.92
2019-03-17T06:50:41.127Z,45.77
2019-03-17T06:53:12.052Z,45.82
2019-03-17T06:55:42.998Z,45.15
2019-03-17T06:58:13.725Z,44.73
2019-03-17T07:00:44.423Z,45.15
2019-03-17T07:03:15.227Z,44.42
2019-03-17T07:05:45.887Z,44.07
2019-03-17T07:08:16.582Z,44.34
2019-03-17T07:10:47.287Z,44.80
2019-03-17T07:13:18.137Z,45.78
2019-03-17T07:15:49.033Z,46.26
2019-03-17T07:18:19.736Z,45.83
2019-03-17T07:20:50.403Z,45.98
2019-03-17T07:23:21.095Z,46.41
2019-03-17T07:25:51.767Z,46.88
2019-03-17T07:28:22.435Z,46.86
2019-03-17T07:30:53.129Z,47.20
2019-03-17T07:33:24.839Z,46.22
2019-03-17T07:35:55.635Z,46.53
2019-03-17T07:38:26.470Z,47.42
2019-03-17T07:40:57.298Z,47.04
2019-03-17T07:43:28.103Z,47.38
2019-03-17T07:45:58.867Z,46.03
2019-03-17T07:48:29.812Z,46.37
2019-03-17T07:51:00.687Z,46.29
2019-03-17T07:53:31.609Z,46.21
2019-03-17T07:56:02.346Z,46.68
2019-03-17T07:58:33.111Z,47.11
2019-03-17T08:01:04.016Z,48.27
2019-03-17T08:03:35.274Z,47.40
2019-03-17T08:06:06.064Z,46.88
2019-03-17T08:08:36.909Z,46.69
2019-03-17T08:11:07.980Z,46.71
2019-03-17T08:13:38.762Z,46.11
2019-03-17T08:16:09.661Z,47.88
2019-03-17T08:18:40.520Z,47.65
2019-03-17T08:21:11.286Z,46.80
2019-03-17T08:23:41.894Z,46.97
2019-03-17T08:26:12.750Z,47.14
2019-03-17T08:28:43.517Z,47.55
2019-03-17T08:31:14.127Z,48.10
2019-03-17T08:33:44.979Z,47.21
2019-03-17T08:36:15.594Z,47.11
2019-03-17T08:38:46.686Z,46.74
2019-03-17T08:41:17.468Z,46.80
2019-03-17T08:43:54.132Z,47.08
2019-03-17T08:46:20.403Z,46.88
2019-03-17T08:48:51.541Z,48.05
2019-03-17T08:51:22.212Z,48.02
2019-03-17T08:53:53.132Z,47.21
2019-03-17T08:56:23.821Z,46.48
2019-03-17T08:58:54.696Z,46.38
2019-03-17T09:01:25.388Z,46.45
2019-03-17T09:03:55.920Z,47.80
2019-03-17T09:06:27.010Z,46.53
2019-03-17T09:08:57.797Z,46.56
2019-03-17T09:11:28.523Z,46.27
2019-03-17T09:13:59.294Z,46.33
2019-03-17T09:16:30.028Z,46.74
2019-03-17T09:19:00.812Z,45.18
2019-03-17T09:21:31.566Z,45.70
2019-03-17T09:24:02.447Z,46.33
2019-03-17T09:26:33.242Z,46.94
2019-03-17T09:29:03.956Z,44.43
2019-03-17T09:31:34.606Z,43.92
2019-03-17T09:34:05.440Z,44.06
2019-03-17T09:36:36.321Z,44.48
2019-03-17T09:39:07.932Z,45.53
2019-03-17T09:41:38.554Z,44.84
2019-03-17T09:44:09.327Z,44.15
2019-03-17T09:46:40.161Z,44.27
2019-03-17T09:49:10.807Z,44.09
2019-03-17T09:51:41.601Z,43.52
2019-03-17T09:54:13.530Z,43.13
2019-03-17T09:56:44.297Z,41.90
2019-03-17T09:59:15.171Z,42.33
2019-03-17T10:01:45.917Z,42.70
2019-03-17T10:04:16.699Z,41.36
2019-03-17T10:06:47.592Z,41.89
2019-03-17T10:09:18.408Z,42.49
2019-03-17T10:11:49.258Z,41.82
2019-03-17T10:14:20.043Z,42.81
2019-03-17T10:16:50.915Z,42.40
2019-03-17T10:19:21.562Z,42.40
2019-03-17T10:21:52.359Z,43.38
2019-03-17T10:24:23.195Z,42.45
2019-03-17T10:26:53.818Z,40.07
2019-03-17T10:29:24.615Z,41.00
2019-03-17T10:31:56.312Z,40.53
2019-03-17T10:34:27.058Z,40.76
2019-03-17T10:36:57.816Z,40.82
2019-03-17T10:39:28.747Z,40.32
2019-03-17T10:41:59.501Z,41.03
2019-03-17T10:44:30.544Z,41.37
2019-03-17T10:47:01.369Z,41.90
2019-03-17T10:49:32.175Z,42.29
2019-03-17T10:52:02.939Z,43.33
2019-03-17T10:54:33.737Z,43.13
2019-03-17T10:57:04.577Z,42.35
2019-03-17T10:59:35.335Z,40.83
2019-03-17T11:02:06.085Z,42.38
2019-03-17T11:04:36.767Z,41.45
2019-03-17T11:07:08.282Z,41.25
2019-03-17T11:09:38.893Z,43.10
2019-03-17T11:12:09.748Z,41.90
2019-03-17T11:14:40.622Z,43.18
2019-03-17T11:17:11.403Z,43.80
2019-03-17T11:19:42.233Z,43.66
2019-03-17T11:22:12.989Z,43.38
2019-03-17T11:24:43.798Z,43.18
2019-03-17T11:27:14.559Z,44.30
2019-03-17T11:29:45.380Z,44.58
2019-03-17T11:32:16.351Z,45.07
2019-03-17T11:34:47.117Z,45.16
2019-03-17T11:37:18.856Z,43.67
2019-03-17T11:39:49.609Z,44.54
2019-03-17T11:42:27.553Z,44.70
2019-03-17T11:44:58.678Z,45.35
2019-03-17T11:47:29.820Z,45.42
2019-03-17T11:50:00.459Z,45.17
2019-03-17T11:52:31.304Z,44.76
2019-03-17T11:55:02.103Z,45.36
2019-03-17T11:57:33.068Z,44.62
2019-03-17T12:00:04.119Z,45.21
2019-03-17T12:02:34.931Z,44.68
2019-03-17T12:05:06.773Z,45.62
2019-03-17T12:07:37.590Z,44.85
2019-03-17T12:10:09.775Z,45.78
2019-03-17T12:12:40.686Z,46.85
2019-03-17T12:15:13.110Z,46.23
2019-03-17T12:17:43.783Z,47.02
2019-03-17T12:20:14.997Z,46.03
2019-03-17T12:22:45.808Z,47.07
2019-03-17T12:25:16.783Z,47.08
2019-03-17T12:27:47.710Z,46.34
2019-03-17T12:30:22.555Z,47.05
2019-03-17T12:32:54.058Z,48.34
2019-03-17T12:35:24.947Z,48.89
2019-03-17T12:37:55.871Z,48.69
2019-03-17T12:40:26.703Z,49.04
2019-03-17T12:42:57.683Z,50.18
2019-03-17T12:45:28.355Z,49.79
2019-03-17T12:47:59.207Z,50.89
2019-03-17T12:50:29.922Z,51.94
2019-03-17T12:53:00.722Z,52.85
2019-03-17T12:55:31.455Z,53.17
2019-03-17T12:58:02.215Z,53.32
2019-03-17T13:00:33.103Z,53.60
2019-03-17T13:03:04.000Z,53.94
2019-03-17T13:05:34.874Z,54.27
2019-03-17T13:08:05.705Z,54.31
2019-03-17T13:10:36.512Z,54.65
2019-03-17T13:13:07.370Z,55.25
2019-03-17T13:15:38.180Z,56.40
2019-03-17T13:18:08.980Z,55.81
2019-03-17T13:20:39.753Z,55.73
2019-03-17T13:23:10.433Z,56.32
2019-03-17T13:25:41.217Z,57.06
2019-03-17T13:28:11.879Z,57.19
2019-03-17T13:30:42.690Z,57.53
2019-03-17T13:33:13.487Z,57.10
2019-03-17T13:35:44.287Z,57.87
2019-03-17T13:38:15.154Z,58.44
2019-03-17T13:40:46.107Z,58.10
2019-03-17T13:43:17.616Z,55.57
2019-03-17T13:45:48.474Z,55.29
2019-03-17T13:48:19.289Z,56.04
2019-03-17T13:50:50.053Z,56.03
2019-03-17T13:53:22.974Z,57.65
2019-03-17T13:55:53.370Z,62.63
2019-03-17T13:58:24.063Z,63.53
2019-03-17T14:00:54.910Z,62.87
2019-03-17T14:03:25.703Z,63.23
2019-03-17T14:05:56.595Z,64.39
2019-03-17T14:08:27.312Z,66.94
2019-03-17T14:10:58.285Z,66.07
2019-03-17T14:13:28.987Z,66.19
2019-03-17T14:15:59.861Z,62.80
2019-03-17T14:18:30.455Z,65.38
2019-03-17T14:21:01.439Z,65.53
2019-03-17T14:23:32.202Z,66.29
2019-03-17T14:26:02.962Z,65.64
2019-03-17T14:28:33.762Z,68.03
2019-03-17T14:31:04.633Z,68.31
2019-03-17T14:33:35.333Z,69.48
2019-03-17T14:36:06.010Z,71.66
2019-03-17T14:38:36.803Z,71.30
2019-03-17T14:41:07.561Z,70.05
2019-03-17T14:43:38.302Z,70.44
2019-03-17T14:46:09.110Z,69.92
2019-03-17T14:48:40.107Z,70.97
2019-03-17T14:51:10.910Z,71.35
2019-03-17T14:53:42.069Z,72.07
2019-03-17T14:56:12.756Z,72.16
2019-03-17T14:58:43.424Z,70.86
2019-03-17T15:01:14.220Z,70.90
2019-03-17T15:03:45.445Z,73.36
2019-03-17T15:06:16.133Z,74.41
2019-03-17T15:08:47.133Z,73.32
2019-03-17T15:11:17.981Z,74.46
2019-03-17T15:13:48.853Z,74.17
2019-03-17T15:16:19.754Z,75.03
2019-03-17T15:18:50.682Z,72.25
2019-03-17T15:21:21.454Z,72.29
2019-03-17T15:23:52.126Z,73.50
2019-03-17T15:26:22.918Z,74.00
2019-03-17T15:29:12.251Z,73.47
2019-03-17T15:31:44.562Z,73.32
2019-03-17T15:34:15.350Z,73.92
2019-03-17T15:36:46.240Z,74.42
2019-03-17T15:39:45.858Z,74.50
2019-03-17T15:42:19.467Z,72.28
2019-03-17T15:44:50.434Z,72.52
2019-03-17T15:47:21.224Z,73.97
2019-03-17T15:49:52.003Z,74.86
2019-03-17T15:52:22.695Z,73.37
2019-03-17T15:54:53.628Z,73.59
2019-03-17T15:57:24.446Z,74.99
2019-03-17T15:59:55.391Z,74.01
2019-03-17T16:02:26.007Z,74.97
2019-03-17T16:04:56.768Z,75.62
2019-03-17T16:07:27.366Z,75.47
2019-03-17T16:09:58.350Z,75.42
2019-03-17T16:12:29.248Z,75.03
2019-03-17T16:15:00.046Z,75.29
2019-03-17T16:17:30.846Z,75.06
2019-03-17T16:20:02.759Z,75.85
2019-03-17T16:22:33.545Z,76.11
2019-03-17T16:25:04.766Z,76.02
2019-03-17T16:27:35.496Z,75.27
2019-03-17T16:30:07.694Z,75.88
2019-03-17T16:32:38.641Z,76.16
2019-03-17T16:35:09.676Z,76.09
2019-03-17T16:37:40.570Z,75.91
2019-03-17T16:40:13.047Z,75.87
2019-03-17T16:42:44.171Z,75.76
2019-03-17T16:45:16.091Z,75.65
2019-03-17T16:47:47.070Z,75.89
2019-03-17T16:50:18.990Z,75.60
2019-03-17T16:52:50.329Z,75.61
2019-03-17T16:55:21.040Z,75.58
2019-03-17T16:57:51.902Z,75.65
2019-03-17T17:00:22.989Z,76.36
2019-03-17T17:02:54.050Z,76.26
2019-03-17T17:05:25.226Z,75.98
2019-03-17T17:07:55.969Z,76.46
2019-03-17T17:10:26.852Z,76.81
2019-03-17T17:12:57.642Z,76.50
2019-03-17T17:15:28.495Z,76.08
2019-03-17T17:17:59.484Z,76.40
2019-03-17T17:20:30.376Z,76.54
2019-03-17T17:23:01.394Z,75.84
2019-03-17T17:25:32.389Z,75.15
2019-03-17T17:28:03.242Z,75.80
2019-03-17T17:30:34.016Z,77.09
2019-03-17T17:33:04.961Z,77.73
2019-03-17T17:35:36.616Z,77.97
2019-03-17T17:38:07.518Z,78.04
2019-03-17T17:40:38.482Z,77.91
2019-03-17T17:43:09.214Z,77.70
2019-03-17T17:45:39.979Z,78.08
2019-03-17T17:48:10.782Z,78.28
2019-03-17T17:50:41.449Z,78.56
2019-03-17T17:53:12.293Z,78.41
2019-03-17T17:55:43.142Z,79.00
2019-03-17T17:58:13.933Z,79.10
2019-03-17T18:00:45.475Z,78.77
2019-03-17T18:03:16.316Z,79.10
2019-03-17T18:05:47.190Z,78.13
2019-03-17T18:08:17.882Z,77.95
2019-03-17T18:10:48.559Z,77.52
2019-03-17T18:13:19.221Z,77.43
2019-03-17T18:15:49.953Z,77.20
2019-03-17T18:18:20.665Z,77.56
2019-03-17T18:20:51.422Z,77.27
2019-03-17T18:23:22.161Z,77.55
2019-03-17T18:25:52.782Z,77.05
2019-03-17T18:28:23.650Z,77.51
2019-03-17T18:30:54.618Z,77.50
2019-03-17T18:33:25.322Z,77.34
2019-03-17T18:35:56.207Z,77.40
2019-03-17T18:38:26.895Z,77.42
2019-03-17T18:40:57.641Z,77.06
2019-03-17T18:43:28.355Z,77.44
2019-03-17T18:45:59.062Z,77.54
2019-03-17T18:48:29.738Z,77.37
2019-03-17T18:51:00.536Z,78.39
2019-03-17T18:53:31.258Z,78.54
2019-03-17T18:56:03.157Z,78.84
2019-03-17T18:58:33.957Z,80.07
2019-03-17T19:01:05.124Z,81.18
2019-03-17T19:03:36.004Z,81.24
2019-03-17T19:06:06.954Z,81.75
2019-03-17T19:08:37.610Z,81.94
2019-03-17T19:11:09.417Z,82.01
2019-03-17T19:13:40.144Z,81.43
2019-03-17T19:16:11.084Z,80.14
2019-03-17T19:18:41.852Z,81.51
2019-03-17T19:21:12.647Z,81.94
2019-03-17T19:23:44.371Z,81.98
2019-03-17T19:26:15.235Z,82.11
2019-03-17T19:28:45.838Z,81.81
2019-03-17T19:31:16.606Z,81.54
2019-03-17T19:33:47.527Z,80.97
2019-03-17T19:36:18.301Z,81.46
2019-03-17T19:38:49.282Z,81.43
2019-03-17T19:41:20.236Z,81.82
2019-03-17T19:43:50.949Z,82.22
2019-03-17T19:46:21.691Z,81.86
2019-03-17T19:48:52.558Z,82.04
2019-03-17T19:51:23.266Z,82.02
2019-03-17T19:53:53.970Z,81.59
2019-03-17T19:56:24.735Z,81.54
2019-03-17T19:58:55.543Z,81.71
2019-03-17T20:01:26.305Z,81.63
2019-03-17T20:03:59.773Z,81.58
2019-03-17T20:06:55.015Z,81.72
2019-03-17T20:09:39.852Z,81.85
2019-03-17T20:12:10.602Z,82.10
2019-03-17T20:14:42.140Z,82.12
2019-03-17T20:17:12.832Z,82.02
2019-03-17T20:19:43.718Z,82.05
2019-03-17T20:22:14.575Z,82.15
2019-03-17T20:24:45.445Z,81.99
2019-03-17T20:27:16.235Z,82.01
2019-03-17T20:29:47.210Z,81.97
2019-03-17T20:32:18.079Z,81.65
2019-03-17T20:34:48.779Z,81.93
2019-03-17T20:37:19.545Z,82.14
2019-03-17T20:39:50.242Z,81.74
2019-03-17T20:42:21.187Z,81.53
2019-03-17T20:44:51.891Z,81.92
2019-03-17T20:47:23.778Z,81.97
2019-03-17T20:49:54.468Z,81.78
2019-03-17T20:52:27.636Z,81.43
2019-03-17T20:54:58.483Z,81.74
2019-03-17T20:57:29.284Z,81.43
2019-03-17T21:00:00.299Z,81.52
2019-03-17T21:02:30.920Z,81.64
2019-03-17T21:05:01.776Z,81.43
2019-03-17T21:07:32.490Z,81.38
2019-03-17T21:10:03.467Z,81.21
2019-03-17T21:12:34.910Z,81.34
2019-03-17T21:15:06.054Z,81.51
2019-03-17T21:17:36.854Z,81.88
2019-03-17T21:20:09.426Z,81.94
2019-03-17T21:22:40.302Z,82.27
2019-03-17T21:25:11.415Z,82.22
2019-03-17T21:27:42.253Z,82.27
2019-03-17T21:30:18.081Z,82.29
2019-03-17T21:32:49.177Z,82.70
2019-03-17T21:35:20.070Z,82.65
2019-03-17T21:37:51.060Z,82.41
2019-03-17T21:40:21.746Z,82.43
2019-03-17T21:42:53.694Z,81.71
2019-03-17T21:45:27.334Z,81.34
2019-03-17T21:47:56.921Z,81.81
2019-03-17T21:50:27.770Z,81.98
2019-03-17T21:52:59.084Z,81.70
2019-03-17T21:55:29.952Z,81.22
2019-03-17T21:58:07.814Z,81.46
2019-03-17T22:00:33.466Z,81.05
2019-03-17T22:03:04.294Z,80.91
2019-03-17T22:05:35.066Z,80.83
2019-03-17T22:08:05.843Z,80.57
2019-03-17T22:10:36.635Z,80.65
2019-03-17T22:13:07.377Z,80.28
2019-03-17T22:15:38.431Z,80.73
2019-03-17T22:18:09.216Z,80.47
2019-03-17T22:20:40.089Z,80.47
2019-03-17T22:23:11.031Z,80.27
2019-03-17T22:25:41.962Z,80.74
2019-03-17T22:28:12.735Z,80.26
2019-03-17T22:30:43.529Z,80.70
2019-03-17T22:33:14.162Z,80.45
2019-03-17T22:35:44.830Z,79.97
2019-03-17T22:38:15.527Z,80.58
2019-03-17T22:40:46.232Z,80.40
2019-03-17T22:43:16.906Z,80.02
2019-03-17T22:45:47.598Z,80.09
2019-03-17T22:48:18.318Z,79.69
2019-03-17T22:50:49.069Z,79.78
2019-03-17T22:53:19.725Z,79.84
2019-03-17T22:55:50.324Z,80.25
2019-03-17T22:58:21.130Z,80.41
2019-03-17T23:00:53.044Z,79.89
2019-03-17T23:03:23.787Z,79.81
2019-03-17T23:05:54.625Z,79.65
2019-03-17T23:08:25.435Z,80.20
2019-03-17T23:10:56.452Z,80.06
2019-03-17T23:13:27.203Z,80.17
2019-03-17T23:15:57.913Z,79.69
2019-03-17T23:18:28.598Z,79.60
2019-03-17T23:20:59.230Z,79.85
2019-03-17T23:23:29.799Z,80.10
2019-03-17T23:26:00.489Z,80.15
2019-03-17T23:28:31.171Z,80.04
2019-03-17T23:31:02.082Z,79.81
2019-03-17T23:33:32.939Z,79.91
2019-03-17T23:36:04.141Z,79.93
2019-03-17T23:38:34.741Z,79.86
2019-03-17T23:41:05.725Z,80.49
2019-03-17T23:43:36.514Z,81.01
2019-03-17T23:46:07.229Z,81.29
2019-03-17T23:48:38.022Z,81.30
2019-03-17T23:51:08.710Z,81.46
2019-03-17T23:53:39.489Z,81.38
2019-03-17T23:56:10.463Z,80.96
2019-03-17T23:58:41.131Z,81.06
